Time;durP1;ratioP1;P1;durP2;ratioP2;P2;SDS_P1;SDS_P2;PMS_P1;PMS_P2;Temp;Humidity;BMP_temperature;BMP_pressure;BME280_temperature;BME280_humidity;BME280_pressure;Samples;Min_cycle;Max_cycle;Signal;HPM_P1;HPM_P2
2021/10/25 00:00:29;;;;;;;15.77;10.25;;;10.20;82.80;;;;;;4986925;28;20046;-70
2021/10/25 00:02:58;;;;;;;17.70;10.30;;;10.20;82.90;;;;;;4987246;28;20462;-70
2021/10/25 00:05:25;;;;;;;14.02;10.85;;;10.20;82.90;;;;;;5000035;28;20038;-71
2021/10/25 00:07:51;;;;;;;15.23;9.85;;;10.20;82.70;;;;;;5002476;28;20049;-71
2021/10/25 00:10:17;;;;;;;14.07;9.32;;;10.20;82.70;;;;;;4987326;28;20046;-70
2021/10/25 00:12:42;;;;;;;16.85;9.90;;;10.20;82.70;;;;;;4985624;28;20035;-71
2021/10/25 00:15:10;;;;;;;13.25;10.18;;;10.20;82.90;;;;;;4986584;28;20195;-70
2021/10/25 00:17:36;;;;;;;16.90;10.77;;;10.30;82.80;;;;;;4985290;28;20117;-70
2021/10/25 00:20:05;;;;;;;17.30;10.73;;;10.20;82.80;;;;;;4986114;28;20470;-73
2021/10/25 00:22:30;;;;;;;14.05;10.57;;;10.30;82.70;;;;;;4985659;28;20485;-70
2021/10/25 00:24:56;;;;;;;14.90;10.55;;;10.20;82.70;;;;;;4984799;28;20035;-70
2021/10/25 00:27:23;;;;;;;15.60;9.90;;;10.30;82.70;;;;;;4987280;28;20536;-70
2021/10/25 00:29:49;;;;;;;15.13;10.80;;;10.30;82.80;;;;;;4991213;28;20022;-69
2021/10/25 00:32:14;;;;;;;15.15;10.70;;;10.30;82.70;;;;;;4990160;28;20038;-68
2021/10/25 00:34:40;;;;;;;17.58;10.35;;;10.30;82.70;;;;;;4987314;28;20560;-70
2021/10/25 00:37:06;;;;;;;17.10;10.90;;;10.30;82.90;;;;;;4988351;28;20393;-73
2021/10/25 00:39:32;;;;;;;15.07;10.80;;;10.30;82.90;;;;;;4981459;28;20486;-69
2021/10/25 00:41:59;;;;;;;15.90;10.02;;;10.30;83.00;;;;;;4989948;28;20041;-70
2021/10/25 00:44:27;;;;;;;12.75;10.07;;;10.30;82.90;;;;;;4986057;28;20034;-69
2021/10/25 00:46:52;;;;;;;13.13;10.27;;;10.30;82.90;;;;;;4985067;28;20062;-69
2021/10/25 00:49:18;;;;;;;14.25;9.57;;;10.40;83.00;;;;;;4984484;28;20069;-69
2021/10/25 00:51:44;;;;;;;13.77;9.32;;;10.30;82.90;;;;;;4985695;28;20547;-69
2021/10/25 00:54:09;;;;;;;15.48;10.25;;;10.40;82.90;;;;;;4990538;28;20035;-69
2021/10/25 00:56:41;;;;;;;15.20;9.65;;;10.40;82.90;;;;;;4989428;28;20038;-74
2021/10/25 00:59:07;;;;;;;13.02;9.93;;;10.40;83.10;;;;;;4985125;28;20096;-69
2021/10/25 01:01:32;;;;;;;14.25;10.05;;;10.40;83.00;;;;;;5006634;28;20082;-69
2021/10/25 01:03:58;;;;;;;15.27;10.48;;;10.40;83.00;;;;;;5004663;28;20038;-70
2021/10/25 01:06:24;;;;;;;15.43;10.82;;;10.40;83.20;;;;;;4989937;28;20072;-70
2021/10/25 01:08:51;;;;;;;14.98;10.32;;;10.40;83.20;;;;;;4989515;28;20116;-70
2021/10/25 01:11:18;;;;;;;14.77;10.45;;;10.50;83.10;;;;;;4987037;28;20431;-70
2021/10/25 01:13:44;;;;;;;18.40;10.18;;;10.50;83.10;;;;;;4990478;28;20030;-69
2021/10/25 01:16:10;;;;;;;13.65;10.00;;;10.40;83.10;;;;;;4988503;28;20062;-70
2021/10/25 01:18:36;;;;;;;14.45;9.70;;;10.50;83.00;;;;;;5005248;28;20533;-71
2021/10/25 01:21:02;;;;;;;17.17;10.75;;;10.50;83.00;;;;;;4987675;28;20034;-74
2021/10/25 01:23:27;;;;;;;14.30;9.68;;;10.50;83.00;;;;;;5006316;28;20121;-70
2021/10/25 01:25:55;;;;;;;12.57;9.25;;;10.50;83.10;;;;;;5001724;28;20058;-75
2021/10/25 01:28:21;;;;;;;15.48;10.25;;;10.50;83.10;;;;;;4993023;28;20060;-72
2021/10/25 01:30:46;;;;;;;15.40;10.48;;;10.50;83.10;;;;;;4989574;28;20042;-69
2021/10/25 01:33:15;;;;;;;14.32;9.48;;;10.50;83.10;;;;;;4988330;28;20122;-69
2021/10/25 01:35:42;;;;;;;16.80;11.18;;;10.50;83.10;;;;;;5005303;28;20509;-69
2021/10/25 01:38:08;;;;;;;13.60;9.70;;;10.50;82.90;;;;;;4988957;28;20058;-69
2021/10/25 01:40:34;;;;;;;16.23;10.68;;;10.50;82.90;;;;;;5006601;28;20042;-70
2021/10/25 01:43:00;;;;;;;13.50;9.45;;;10.50;83.00;;;;;;5003803;28;20057;-69
2021/10/25 01:45:26;;;;;;;13.20;9.70;;;10.50;83.00;;;;;;4989022;28;20074;-69
2021/10/25 01:47:53;;;;;;;14.00;9.63;;;10.50;82.90;;;;;;5000409;28;20085;-70
2021/10/25 01:50:19;;;;;;;13.55;9.68;;;10.60;83.00;;;;;;4987607;28;20038;-69
2021/10/25 01:52:44;;;;;;;16.55;10.25;;;10.60;82.80;;;;;;4989329;28;20485;-70
2021/10/25 01:55:10;;;;;;;15.35;9.68;;;10.60;82.60;;;;;;4988449;28;20034;-69
2021/10/25 01:57:36;;;;;;;17.35;11.02;;;10.60;82.60;;;;;;4988909;28;20054;-70
2021/10/25 02:00:02;;;;;;;13.05;9.18;;;10.60;82.50;;;;;;4992610;28;20125;-70
2021/10/25 02:02:28;;;;;;;14.15;9.43;;;10.60;82.50;;;;;;4998734;28;20583;-69
2021/10/25 02:04:53;;;;;;;15.57;10.15;;;10.60;82.40;;;;;;4988856;28;20117;-70
2021/10/25 02:07:19;;;;;;;15.43;10.02;;;10.60;82.40;;;;;;4988439;28;20485;-69
2021/10/25 02:09:45;;;;;;;13.68;10.63;;;10.60;82.40;;;;;;4988517;28;20530;-69
2021/10/25 02:12:12;;;;;;;12.15;9.02;;;10.70;82.30;;;;;;4988881;28;20057;-69
2021/10/25 02:14:38;;;;;;;13.68;9.45;;;10.60;82.30;;;;;;4990402;28;20417;-71
2021/10/25 02:17:04;;;;;;;15.60;11.25;;;10.60;82.40;;;;;;4988589;28;20034;-76
2021/10/25 02:19:31;;;;;;;14.75;10.18;;;10.60;82.70;;;;;;4990324;28;20038;-70
2021/10/25 02:21:57;;;;;;;14.60;9.98;;;10.60;82.90;;;;;;4989255;28;20363;-69
2021/10/25 02:24:22;;;;;;;14.18;10.10;;;10.60;83.10;;;;;;4988301;28;20084;-70
2021/10/25 02:26:48;;;;;;;19.25;11.95;;;10.60;84.50;;;;;;4988353;28;20038;-69
2021/10/25 02:29:14;;;;;;;17.60;11.55;;;10.60;85.50;;;;;;4995304;28;20034;-70
2021/10/25 02:31:40;;;;;;;16.70;12.00;;;10.60;86.20;;;;;;4990830;28;20165;-71
2021/10/25 02:34:06;;;;;;;15.38;12.45;;;10.50;86.70;;;;;;4994167;28;20068;-69
2021/10/25 02:36:32;;;;;;;16.33;11.93;;;10.40;87.30;;;;;;4989351;28;20052;-70
2021/10/25 02:38:58;;;;;;;18.52;13.50;;;10.40;87.70;;;;;;5004610;28;20042;-70
2021/10/25 02:41:24;;;;;;;20.35;13.45;;;10.40;88.20;;;;;;4988427;28;20405;-70
2021/10/25 02:43:50;;;;;;;17.67;12.95;;;10.30;88.50;;;;;;4990262;28;20533;-70
2021/10/25 02:46:16;;;;;;;18.67;13.25;;;10.30;88.80;;;;;;4984646;28;20074;-71
2021/10/25 02:48:43;;;;;;;17.17;13.50;;;10.30;88.90;;;;;;4989299;28;20070;-70
2021/10/25 02:51:09;;;;;;;19.48;13.60;;;10.20;89.20;;;;;;4986460;28;20142;-69
2021/10/25 02:53:35;;;;;;;18.05;13.27;;;10.20;89.40;;;;;;4987382;28;20061;-71
2021/10/25 02:56:01;;;;;;;17.48;13.35;;;10.20;89.60;;;;;;4993295;28;20061;-70
2021/10/25 02:58:26;;;;;;;17.77;13.90;;;10.20;89.60;;;;;;4995304;28;20552;-73
2021/10/25 03:00:52;;;;;;;19.08;13.68;;;10.10;89.70;;;;;;4989749;28;20068;-69
2021/10/25 03:03:18;;;;;;;21.65;14.65;;;10.10;89.90;;;;;;4992490;28;20037;-69
2021/10/25 03:05:44;;;;;;;17.40;13.45;;;10.10;90.00;;;;;;4991098;28;20389;-74
2021/10/25 03:08:10;;;;;;;20.45;14.93;;;10.10;90.10;;;;;;4989055;28;20061;-70
2021/10/25 03:10:36;;;;;;;19.20;13.50;;;10.10;90.20;;;;;;4988825;28;20026;-71
2021/10/25 03:13:02;;;;;;;21.02;14.52;;;10.10;90.20;;;;;;4988104;28;20030;-72
2021/10/25 03:15:27;;;;;;;19.05;14.23;;;10.10;90.30;;;;;;4988858;28;20048;-71
2021/10/25 03:17:53;;;;;;;19.58;14.80;;;10.10;90.30;;;;;;4988234;28;20050;-70
2021/10/25 03:20:19;;;;;;;22.10;14.32;;;10.10;90.30;;;;;;4989529;28;20093;-70
2021/10/25 03:22:45;;;;;;;18.05;14.00;;;10.10;90.30;;;;;;4987867;28;20046;-69
2021/10/25 03:25:11;;;;;;;18.75;13.60;;;10.10;90.30;;;;;;5004168;28;20030;-70
2021/10/25 03:27:38;;;;;;;20.27;14.32;;;10.10;90.40;;;;;;4988887;28;20042;-72
2021/10/25 03:30:05;;;;;;;21.38;15.18;;;10.10;90.40;;;;;;4989831;28;20031;-72
2021/10/25 03:32:31;;;;;;;18.48;13.65;;;10.10;90.30;;;;;;4985136;28;20603;-70
2021/10/25 03:34:56;;;;;;;18.15;14.00;;;10.10;90.40;;;;;;4999193;28;20117;-70
2021/10/25 03:37:23;;;;;;;19.80;14.95;;;10.10;90.40;;;;;;4990391;28;20130;-72
2021/10/25 03:39:50;;;;;;;24.83;15.07;;;10.10;90.40;;;;;;4996609;28;20050;-72
2021/10/25 03:42:27;;;;;;;21.25;15.20;;;10.10;90.50;;;;;;4983774;28;20050;-69
2021/10/25 03:45:08;;;;;;;19.40;14.93;;;10.10;90.50;;;;;;4987454;28;20085;-71
2021/10/25 03:48:01;;;;;;;19.45;13.85;;;10.20;90.50;;;;;;4985616;28;20030;-71
2021/10/25 03:50:22;;;;;;;19.80;14.98;;;10.10;90.50;;;;;;4987286;28;20129;-70
2021/10/25 03:52:58;;;;;;;20.88;15.77;;;10.10;90.60;;;;;;4986360;28;20113;-71
2021/10/25 04:04:13;;;;;;;21.48;14.60;;;10.10;90.90;;;;;;4986191;28;20037;-72
2021/10/25 04:28:12;;;;;;;20.17;14.82;;;10.00;91.60;;;;;;4989203;28;20042;-70
2021/10/25 04:30:39;;;;;;;22.80;16.25;;;10.10;91.70;;;;;;4986179;28;20050;-71
2021/10/25 04:33:06;;;;;;;19.67;14.65;;;10.10;91.70;;;;;;4986057;28;20034;-71
2021/10/25 04:35:32;;;;;;;18.85;14.90;;;10.10;91.70;;;;;;4988330;28;20156;-71
2021/10/25 04:37:58;;;;;;;20.10;14.30;;;10.10;91.70;;;;;;4986182;28;20077;-71
2021/10/25 04:40:25;;;;;;;20.58;15.05;;;10.10;91.60;;;;;;4981534;28;20474;-70
2021/10/25 04:42:51;;;;;;;19.73;14.68;;;10.00;91.60;;;;;;4986467;28;20046;-72
2021/10/25 04:45:19;;;;;;;20.40;15.57;;;10.00;91.70;;;;;;4985130;28;20043;-75
2021/10/25 04:47:45;;;;;;;18.10;14.68;;;10.00;91.70;;;;;;4988907;28;20140;-71
2021/10/25 04:50:11;;;;;;;20.02;15.68;;;10.00;91.70;;;;;;4984718;28;20145;-70
2021/10/25 04:52:38;;;;;;;19.95;15.07;;;10.00;91.60;;;;;;4985465;28;20038;-70
2021/10/25 04:55:05;;;;;;;18.42;15.25;;;10.00;91.70;;;;;;4987746;28;20034;-71
2021/10/25 04:57:30;;;;;;;19.55;15.98;;;10.00;91.70;;;;;;4987813;28;20030;-70
2021/10/25 04:59:57;;;;;;;19.98;15.80;;;10.00;91.70;;;;;;4988467;28;20054;-72
2021/10/25 05:02:23;;;;;;;19.95;16.00;;;10.00;91.70;;;;;;4984498;28;20041;-74
2021/10/25 05:04:49;;;;;;;21.92;16.00;;;10.00;91.70;;;;;;4984438;28;20038;-71
2021/10/25 05:07:15;;;;;;;19.25;16.13;;;10.00;91.60;;;;;;4982749;28;20069;-71
2021/10/25 05:09:41;;;;;;;18.58;15.60;;;9.90;91.70;;;;;;4986716;28;20049;-77
2021/10/25 05:12:13;;;;;;;20.02;16.55;;;10.00;91.70;;;;;;4987553;28;20034;-71
2021/10/25 05:14:40;;;;;;;21.00;16.08;;;9.90;91.70;;;;;;4991153;28;20038;-73
2021/10/25 05:17:06;;;;;;;20.27;16.80;;;10.00;91.80;;;;;;4991054;28;20037;-73
2021/10/25 05:19:32;;;;;;;21.65;17.10;;;10.00;91.90;;;;;;5001331;28;20053;-71
2021/10/25 05:21:58;;;;;;;22.45;17.02;;;10.00;91.90;;;;;;4987807;28;20027;-72
2021/10/25 05:24:23;;;;;;;22.30;17.40;;;10.00;92.00;;;;;;4986160;28;20408;-72
2021/10/25 05:26:49;;;;;;;23.27;18.25;;;10.00;92.00;;;;;;4987275;28;20034;-70
2021/10/25 05:29:15;;;;;;;24.92;18.98;;;10.00;92.10;;;;;;5007797;28;20026;-71
2021/10/25 05:31:40;;;;;;;20.98;17.10;;;10.00;92.20;;;;;;4986466;28;20478;-73
2021/10/25 05:34:06;;;;;;;23.08;18.02;;;10.00;92.10;;;;;;4987819;28;20038;-71
2021/10/25 05:36:32;;;;;;;22.98;18.73;;;10.00;92.10;;;;;;4989046;28;20096;-70
2021/10/25 05:38:58;;;;;;;21.98;18.17;;;10.00;92.20;;;;;;4990381;28;20030;-71
2021/10/25 05:41:27;;;;;;;20.77;18.08;;;10.10;92.30;;;;;;4989876;28;20081;-71
2021/10/25 05:43:52;;;;;;;20.60;17.52;;;10.00;92.30;;;;;;4990147;28;20429;-70
2021/10/25 05:46:18;;;;;;;23.10;17.77;;;10.10;92.40;;;;;;4988565;28;20085;-71
2021/10/25 05:48:44;;;;;;;25.73;18.88;;;10.00;92.40;;;;;;4990550;28;20370;-71
2021/10/25 05:51:12;;;;;;;23.25;19.67;;;10.00;92.40;;;;;;4987765;28;20042;-72
2021/10/25 05:53:37;;;;;;;25.45;20.13;;;10.00;92.60;;;;;;5004856;28;20072;-72
2021/10/25 05:56:03;;;;;;;23.38;19.30;;;10.00;92.50;;;;;;4990590;28;20481;-71
2021/10/25 05:58:30;;;;;;;22.63;19.33;;;10.00;92.50;;;;;;4994202;28;20473;-72
2021/10/25 06:01:02;;;;;;;28.00;20.08;;;10.00;92.60;;;;;;4990812;28;20106;-71
2021/10/25 06:03:30;;;;;;;24.73;20.02;;;10.00;92.60;;;;;;4990475;28;20109;-71
2021/10/25 06:05:56;;;;;;;23.48;19.98;;;10.00;92.60;;;;;;4984298;28;20114;-70
2021/10/25 06:08:22;;;;;;;26.15;20.52;;;9.90;92.50;;;;;;4988396;28;20129;-71
2021/10/25 06:10:48;;;;;;;27.38;20.23;;;9.90;92.60;;;;;;4990714;28;20093;-71
2021/10/25 06:13:28;;;;;;;23.85;19.83;;;9.90;92.50;;;;;;5003252;28;20371;-73
2021/10/25 06:15:57;;;;;;;27.88;20.85;;;9.90;92.60;;;;;;4993341;28;20044;-73
2021/10/25 06:18:23;;;;;;;22.88;19.38;;;9.90;92.50;;;;;;4984245;28;20482;-70
2021/10/25 06:20:50;;;;;;;24.67;19.90;;;9.90;92.50;;;;;;4990404;28;20042;-76
2021/10/25 06:23:16;;;;;;;25.45;18.38;;;9.90;92.50;;;;;;4989008;28;20033;-77
2021/10/25 06:25:45;;;;;;;24.00;18.52;;;9.90;92.50;;;;;;4990258;28;20046;-74
2021/10/25 06:28:11;;;;;;;25.15;18.35;;;9.90;92.50;;;;;;4992424;28;20042;-72
2021/10/25 06:30:37;;;;;;;23.33;18.83;;;9.90;92.50;;;;;;4990235;28;20038;-74
2021/10/25 06:33:04;;;;;;;21.40;18.05;;;9.90;92.40;;;;;;4987981;28;20486;-71
2021/10/25 06:35:32;;;;;;;27.65;19.75;;;9.90;92.30;;;;;;4989351;28;20411;-71
2021/10/25 06:38:11;;;;;;;22.92;18.98;;;10.00;92.10;;;;;;4988396;28;20026;-69
2021/10/25 06:40:38;;;;;;;26.92;19.17;;;10.00;92.10;;;;;;4987378;28;20041;-69
2021/10/25 06:43:04;;;;;;;23.00;18.52;;;10.00;92.10;;;;;;4985601;28;20037;-69
2021/10/25 06:45:30;;;;;;;25.85;18.92;;;10.00;92.00;;;;;;4985333;28;20030;-69
2021/10/25 06:47:55;;;;;;;20.80;18.27;;;10.00;91.90;;;;;;4986160;28;20469;-69
2021/10/25 06:50:24;;;;;;;24.08;19.10;;;10.00;91.90;;;;;;4987341;28;20097;-69
2021/10/25 06:52:51;;;;;;;21.95;18.95;;;10.00;91.90;;;;;;4988628;28;20426;-69
2021/10/25 06:55:17;;;;;;;24.67;19.15;;;9.90;91.90;;;;;;4986689;28;20030;-68
2021/10/25 06:57:43;;;;;;;23.92;17.73;;;9.90;92.00;;;;;;4988472;28;20113;-69
2021/10/25 07:00:10;;;;;;;25.95;19.30;;;9.90;92.00;;;;;;4987837;28;20061;-69
2021/10/25 07:02:35;;;;;;;22.92;18.02;;;9.90;92.00;;;;;;5010892;28;20496;-73
2021/10/25 07:05:02;;;;;;;22.50;18.05;;;10.00;92.00;;;;;;4988247;28;20130;-72
2021/10/25 07:07:29;;;;;;;21.20;16.45;;;9.90;91.80;;;;;;5003871;28;20437;-69
2021/10/25 07:09:56;;;;;;;25.40;17.75;;;9.90;91.80;;;;;;4989000;28;20101;-70
2021/10/25 07:12:26;;;;;;;24.30;17.08;;;9.90;91.60;;;;;;4983398;28;20524;-69
2021/10/25 07:14:55;;;;;;;22.30;17.13;;;9.90;91.60;;;;;;4992116;28;20035;-70
2021/10/25 08:01:00;;;;;;;21.53;15.03;;;10.70;90.40;;;;;;4986296;28;20034;-70
2021/10/25 08:11:09;;;;;;;20.40;15.90;;;10.90;89.80;;;;;;4986551;28;20112;-73
2021/10/25 08:13:40;;;;;;;19.98;15.82;;;11.00;89.30;;;;;;4989683;28;20516;-69
2021/10/25 08:21:15;;;;;;;18.95;15.18;;;11.30;88.30;;;;;;4988363;28;20030;-71
2021/10/25 08:23:41;;;;;;;21.58;16.25;;;11.50;88.20;;;;;;4989712;28;20189;-69
2021/10/25 08:26:08;;;;;;;22.52;14.90;;;11.60;87.90;;;;;;4988830;28;20113;-69
2021/10/25 08:28:35;;;;;;;21.30;15.98;;;11.60;87.50;;;;;;4986833;28;20446;-70
2021/10/25 08:31:00;;;;;;;23.88;15.85;;;11.60;87.30;;;;;;4984801;28;20481;-70
2021/10/25 08:33:43;;;;;;;21.38;15.57;;;11.60;87.10;;;;;;4981371;28;20065;-69
2021/10/25 08:36:25;;;;;;;21.48;16.05;;;11.60;87.10;;;;;;4985351;28;20034;-68
2021/10/25 08:41:35;;;;;;;22.60;16.38;;;11.60;87.30;;;;;;4985664;28;20085;-69
2021/10/25 08:44:05;;;;;;;24.90;17.63;;;11.60;87.10;;;;;;4983693;28;20042;-69
2021/10/25 08:46:31;;;;;;;26.73;17.67;;;11.60;87.10;;;;;;4987715;28;20030;-68
2021/10/25 08:48:57;;;;;;;22.33;16.45;;;11.60;87.40;;;;;;4990710;28;20054;-70
2021/10/25 08:51:24;;;;;;;23.92;17.05;;;11.60;87.70;;;;;;4985852;28;20109;-70
2021/10/25 08:53:50;;;;;;;24.85;17.52;;;11.80;87.50;;;;;;4988892;28;20061;-72
2021/10/25 08:56:17;;;;;;;20.55;16.63;;;11.80;87.00;;;;;;4989771;28;20030;-70
2021/10/25 08:58:50;;;;;;;27.02;17.80;;;11.80;86.90;;;;;;4989586;28;20054;-70
2021/10/25 09:01:26;;;;;;;22.65;17.17;;;11.90;87.40;;;;;;5000231;28;20046;-70
2021/10/25 09:04:07;;;;;;;22.85;17.15;;;12.10;87.20;;;;;;4984642;28;20040;-68
2021/10/25 09:06:34;;;;;;;24.23;16.35;;;12.40;86.80;;;;;;4984739;28;20042;-70
2021/10/25 09:09:01;;;;;;;20.38;16.00;;;12.50;85.30;;;;;;4989601;28;20477;-70
2021/10/25 09:11:28;;;;;;;21.42;15.50;;;12.60;85.30;;;;;;4991338;28;20034;-69
2021/10/25 09:13:53;;;;;;;24.25;14.93;;;12.50;85.10;;;;;;5004558;28;20029;-71
2021/10/25 09:16:19;;;;;;;21.95;15.13;;;12.50;84.90;;;;;;4989893;28;20432;-70
2021/10/25 09:18:45;;;;;;;20.05;15.30;;;12.60;85.00;;;;;;4991260;28;20042;-70
2021/10/25 09:21:13;;;;;;;24.48;16.23;;;12.40;84.70;;;;;;4992818;28;20114;-70
2021/10/25 09:23:42;;;;;;;21.65;16.23;;;12.40;85.00;;;;;;4991813;28;20035;-70
2021/10/25 09:26:12;;;;;;;25.38;17.08;;;12.10;85.20;;;;;;4990153;28;20040;-69
2021/10/25 09:28:41;;;;;;;20.58;15.85;;;12.10;85.50;;;;;;4995679;28;20058;-70
2021/10/25 09:31:13;;;;;;;22.70;16.73;;;12.20;85.80;;;;;;4994687;28;20439;-69
2021/10/25 09:33:41;;;;;;;21.50;16.05;;;12.10;86.10;;;;;;4989597;28;20046;-69
2021/10/25 09:36:14;;;;;;;22.98;16.80;;;12.20;86.60;;;;;;4988421;28;20060;-70
2021/10/25 09:49:14;;;;;;;23.13;16.75;;;12.20;86.90;;;;;;4990145;28;20038;-70
2021/10/25 09:51:52;;;;;;;23.85;17.55;;;12.20;86.80;;;;;;4989099;28;20082;-69
2021/10/25 09:54:25;;;;;;;25.42;17.10;;;12.10;86.90;;;;;;5003146;28;20389;-73
2021/10/25 09:57:22;;;;;;;23.48;17.02;;;12.20;87.00;;;;;;4988284;28;20034;-69
2021/10/25 09:59:56;;;;;;;20.35;16.00;;;12.20;86.70;;;;;;5014878;28;20064;-70
2021/10/25 10:02:23;;;;;;;22.42;17.23;;;12.20;86.60;;;;;;4988975;28;20072;-70
2021/10/25 10:05:00;;;;;;;22.63;17.30;;;12.20;87.00;;;;;;4988408;28;20034;-69
2021/10/25 10:07:27;;;;;;;24.35;16.70;;;12.30;87.20;;;;;;5003733;28;20377;-69
2021/10/25 10:09:54;;;;;;;21.02;16.20;;;12.40;86.70;;;;;;4988678;28;20406;-70
2021/10/25 10:12:21;;;;;;;19.17;15.65;;;12.40;86.40;;;;;;4986930;28;20039;-70
2021/10/25 10:14:53;;;;;;;21.80;15.73;;;12.50;86.70;;;;;;4985204;28;20031;-69
2021/10/25 10:17:50;;;;;;;19.13;15.32;;;12.50;86.30;;;;;;4987547;28;20466;-70
2021/10/25 10:20:25;;;;;;;21.70;16.63;;;12.60;86.50;;;;;;4990962;28;20070;-70
2021/10/25 10:22:54;;;;;;;19.38;15.90;;;12.60;85.90;;;;;;4989331;28;20037;-69
2021/10/25 10:25:33;;;;;;;22.13;16.52;;;12.60;86.10;;;;;;4992723;28;20563;-69
2021/10/25 10:28:01;;;;;;;22.15;16.42;;;12.70;86.20;;;;;;5005773;28;20041;-71
2021/10/25 10:30:28;;;;;;;22.65;16.88;;;12.70;85.60;;;;;;4992748;28;20054;-69
2021/10/25 10:33:00;;;;;;;19.17;16.30;;;12.70;85.50;;;;;;4989333;28;20791;-70
2021/10/25 10:35:26;;;;;;;20.77;16.45;;;12.80;85.70;;;;;;4988036;28;20058;-69
2021/10/25 10:38:00;;;;;;;23.58;16.52;;;12.90;85.80;;;;;;5000999;28;20569;-70
2021/10/25 10:40:39;;;;;;;21.85;16.15;;;13.00;85.00;;;;;;4985609;28;20046;-72
2021/10/25 10:43:22;;;;;;;23.48;16.88;;;13.00;85.20;;;;;;4982266;28;20078;-73
2021/10/25 10:46:04;;;;;;;21.90;16.90;;;13.00;85.20;;;;;;4986747;28;20619;-69
2021/10/25 10:48:34;;;;;;;22.80;17.35;;;13.10;85.20;;;;;;4987678;28;20973;-70
2021/10/25 10:51:11;;;;;;;22.05;17.85;;;13.00;85.40;;;;;;4987931;28;20042;-70
2021/10/25 10:53:44;;;;;;;23.60;16.20;;;13.10;85.20;;;;;;4985683;28;20088;-69
2021/10/25 10:56:21;;;;;;;22.55;16.15;;;13.10;85.50;;;;;;4990387;28;20034;-70
2021/10/25 10:58:51;;;;;;;23.45;17.17;;;13.10;85.20;;;;;;4990163;28;20042;-70
2021/10/25 11:01:16;;;;;;;21.45;16.13;;;13.20;85.40;;;;;;4987860;28;20038;-69
2021/10/25 11:03:42;;;;;;;21.30;17.45;;;13.10;84.40;;;;;;4983297;28;20038;-70
2021/10/25 11:06:17;;;;;;;24.77;16.60;;;13.10;84.80;;;;;;4985208;28;20030;-70
2021/10/25 11:08:51;;;;;;;24.55;16.45;;;13.10;85.10;;;;;;4988316;28;20041;-70
2021/10/25 11:11:19;;;;;;;22.27;16.95;;;13.10;85.20;;;;;;4982469;28;21267;-70
2021/10/25 11:13:53;;;;;;;22.77;17.02;;;13.10;85.30;;;;;;4988184;28;20562;-70
2021/10/25 11:18:51;;;;;;;23.88;18.73;;;13.00;85.50;;;;;;4988372;28;20050;-69
2021/10/25 11:21:21;;;;;;;27.52;21.02;;;13.00;85.60;;;;;;4991173;28;20392;-70
2021/10/25 11:24:02;;;;;;;27.33;19.17;;;12.90;85.70;;;;;;4988602;28;20485;-69
2021/10/25 11:26:31;;;;;;;25.73;18.83;;;12.90;86.00;;;;;;4988971;28;20026;-68
2021/10/25 11:29:07;;;;;;;24.67;19.10;;;12.90;86.20;;;;;;4998952;28;20128;-71
2021/10/25 11:31:39;;;;;;;26.05;20.20;;;12.90;86.00;;;;;;4989018;28;20041;-69
2021/10/25 11:34:11;;;;;;;28.98;20.25;;;12.80;86.10;;;;;;4989491;28;20034;-71
2021/10/25 11:36:54;;;;;;;28.98;20.58;;;12.80;86.10;;;;;;4983981;28;20062;-69
2021/10/25 11:39:30;;;;;;;26.23;19.80;;;12.80;86.40;;;;;;4986633;28;20045;-71
2021/10/25 11:41:56;;;;;;;26.85;20.33;;;12.70;86.90;;;;;;4983467;28;20089;-70
2021/10/25 11:44:22;;;;;;;25.25;19.92;;;12.80;86.70;;;;;;4986357;28;20546;-70
2021/10/25 11:46:47;;;;;;;28.48;21.05;;;12.80;86.50;;;;;;4988271;28;20149;-70
2021/10/25 11:49:21;;;;;;;28.25;21.08;;;12.90;86.30;;;;;;4988190;28;20077;-69
2021/10/25 11:51:52;;;;;;;25.92;20.17;;;13.00;86.20;;;;;;4987403;28;20061;-69
2021/10/25 11:54:18;;;;;;;25.98;19.80;;;13.10;86.00;;;;;;4990016;28;20044;-70
2021/10/25 11:56:50;;;;;;;25.67;20.10;;;13.20;85.60;;;;;;5002227;28;20485;-70
2021/10/25 11:59:16;;;;;;;23.38;19.75;;;13.40;85.20;;;;;;4982105;28;20456;-70
2021/10/25 12:01:43;;;;;;;25.23;19.30;;;13.50;84.60;;;;;;4987988;28;20042;-70
2021/10/25 12:04:09;;;;;;;25.33;19.35;;;13.60;84.50;;;;;;4988209;28;20023;-70
2021/10/25 12:06:36;;;;;;;27.48;20.95;;;13.60;84.30;;;;;;4982159;28;20033;-71
2021/10/25 12:09:08;;;;;;;27.15;21.15;;;13.70;84.40;;;;;;4988323;28;20046;-70
2021/10/25 12:11:48;;;;;;;27.95;21.67;;;13.80;84.20;;;;;;4988633;28;20042;-71
2021/10/25 12:14:15;;;;;;;28.67;21.60;;;13.80;84.00;;;;;;4986915;28;20367;-71
2021/10/25 12:16:44;;;;;;;30.63;23.65;;;13.80;84.10;;;;;;4986360;28;20034;-74
2021/10/25 12:19:10;;;;;;;29.90;22.60;;;13.80;84.00;;;;;;4993280;28;20049;-70
2021/10/25 12:21:35;;;;;;;31.20;25.88;;;13.80;84.00;;;;;;4989096;28;20026;-70
2021/10/25 12:24:07;;;;;;;34.67;26.42;;;13.80;84.00;;;;;;5002398;28;20125;-69
2021/10/25 12:26:33;;;;;;;34.67;27.95;;;13.90;83.70;;;;;;4988458;28;20027;-68
2021/10/25 12:28:59;;;;;;;33.58;25.73;;;14.10;83.30;;;;;;4989406;28;20057;-68
2021/10/25 12:31:27;;;;;;;31.02;26.00;;;14.10;83.30;;;;;;4991246;28;20041;-69
2021/10/25 12:34:03;;;;;;;27.00;22.80;;;14.30;83.20;;;;;;4987709;28;20041;-69
2021/10/25 12:36:35;;;;;;;27.67;23.35;;;14.20;82.60;;;;;;4985854;28;20038;-69
2021/10/25 12:39:13;;;;;;;25.40;20.65;;;14.20;82.90;;;;;;4985976;28;20473;-70
2021/10/25 12:42:11;;;;;;;28.35;20.75;;;14.20;82.50;;;;;;4984616;28;20092;-70
2021/10/25 12:44:41;;;;;;;22.75;20.33;;;14.10;83.00;;;;;;4933289;28;20113;-71
2021/10/25 12:47:19;;;;;;;28.17;21.70;;;14.10;83.30;;;;;;4986093;28;20026;-70
2021/10/25 12:49:51;;;;;;;22.10;19.50;;;14.10;83.50;;;;;;4986626;28;20115;-72
2021/10/25 12:52:18;;;;;;;28.80;22.60;;;14.00;83.60;;;;;;4991261;28;20026;-76
2021/10/25 12:54:44;;;;;;;27.52;22.88;;;14.00;83.90;;;;;;5002959;28;20042;-74
2021/10/25 12:57:25;;;;;;;25.20;21.70;;;14.00;83.90;;;;;;4990092;28;20049;-72
2021/10/25 13:00:07;;;;;;;23.90;20.05;;;13.90;83.80;;;;;;4986727;28;20046;-76
2021/10/25 13:02:48;;;;;;;29.25;25.92;;;13.90;83.90;;;;;;4970274;28;20038;-75
2021/10/25 13:05:31;;;;;;;20.85;18.63;;;13.90;84.10;;;;;;4979195;28;20041;-70
2021/10/25 13:08:01;;;;;;;21.58;18.65;;;13.90;84.00;;;;;;4974549;28;20121;-75
2021/10/25 13:10:32;;;;;;;21.10;17.15;;;13.90;83.90;;;;;;4977880;28;20049;-70
2021/10/25 13:13:00;;;;;;;22.23;16.50;;;14.00;83.70;;;;;;4976662;28;20742;-72
2021/10/25 13:15:26;;;;;;;26.92;20.77;;;13.90;83.90;;;;;;4977489;28;20042;-70
2021/10/25 13:17:56;;;;;;;28.77;22.42;;;13.90;83.50;;;;;;4978358;28;20055;-69
2021/10/25 13:20:24;;;;;;;26.85;21.52;;;13.90;83.90;;;;;;4975525;28;20050;-73
2021/10/25 13:22:52;;;;;;;26.17;21.55;;;13.90;84.00;;;;;;4979045;28;20146;-73
2021/10/25 13:25:19;;;;;;;24.77;21.35;;;13.90;84.10;;;;;;4975686;28;20034;-74
2021/10/25 13:27:45;;;;;;;26.83;22.00;;;14.00;84.10;;;;;;4979074;28;20050;-72
2021/10/25 13:30:13;;;;;;;25.40;21.33;;;13.90;83.70;;;;;;4981577;28;20064;-73
2021/10/25 13:32:39;;;;;;;25.40;21.50;;;14.00;83.70;;;;;;4980218;28;20343;-71
2021/10/25 13:35:06;;;;;;;24.20;20.88;;;13.90;83.90;;;;;;4977672;28;20403;-73
2021/10/25 13:37:32;;;;;;;25.40;19.95;;;14.00;84.10;;;;;;4972926;28;20575;-71
2021/10/25 13:39:58;;;;;;;24.33;21.02;;;13.90;84.00;;;;;;4975236;28;20132;-72
2021/10/25 13:42:24;;;;;;;26.02;20.60;;;13.90;83.90;;;;;;4979734;28;20062;-69
2021/10/25 13:44:51;;;;;;;27.73;20.70;;;13.90;84.20;;;;;;4973367;28;20081;-76
2021/10/25 13:47:18;;;;;;;25.45;19.00;;;14.00;84.20;;;;;;4978765;28;20027;-74
2021/10/25 13:49:44;;;;;;;27.42;20.13;;;14.10;84.10;;;;;;4978094;28;20417;-71
2021/10/25 13:52:10;;;;;;;25.35;18.77;;;14.10;84.00;;;;;;4976425;28;21125;-73
2021/10/25 13:54:37;;;;;;;23.48;17.83;;;14.10;83.80;;;;;;4977514;28;20470;-73
2021/10/25 13:57:07;;;;;;;23.15;17.35;;;14.10;83.80;;;;;;4977938;28;20034;-72
2021/10/25 13:59:33;;;;;;;22.23;16.90;;;14.10;84.00;;;;;;4976060;28;21289;-74
2021/10/25 14:01:59;;;;;;;21.15;17.17;;;14.10;84.10;;;;;;4977250;28;20033;-71
2021/10/25 14:04:25;;;;;;;20.60;15.73;;;14.00;84.40;;;;;;4977155;28;20035;-69
2021/10/25 14:06:51;;;;;;;25.60;17.63;;;14.00;84.80;;;;;;4989836;28;20034;-73
2021/10/25 14:09:16;;;;;;;21.65;16.17;;;13.90;84.90;;;;;;4975271;28;20194;-70
2021/10/25 14:11:48;;;;;;;20.60;16.58;;;13.80;84.90;;;;;;4976149;28;20454;-70
2021/10/25 14:14:19;;;;;;;23.13;16.25;;;13.80;85.40;;;;;;4986883;28;20612;-71
2021/10/25 14:16:57;;;;;;;26.20;18.05;;;13.70;86.20;;;;;;4979753;28;20126;-70